ETEB 230356Z AUTO 08006KT 9999 CLR M03/M05 A3068 RMK AO2 SLP424 T10271047 $ ETIK 230356Z AUTO 00000KT 9999 CLR M02/M02 A3072 RMK AO2 SLP419 T10211021 $ EDDE 230420Z 17004KT CAVOK M03/M05 Q1040 EDDF 230420Z 05008KT 9999 FEW021 02/M01 Q1039 NOSIG ETIC 230356Z AUTO 05003KT 9999 OVC200 M03/M06 A3072 RMK AO2 SLP426 T10311057 FZRANO $ ETIH 230356Z AUTO 00000KT 9999 BKN200 M04/M04 A3071 RMK AO2 SLP424 T10431044 $ ETSI 230420Z AUTO 07004KT 8000 // ////// M02/M05 Q1039 /// EDDP 230420Z 08006KT CAVOK M04/M06 Q1042 NOSIG EDDM 230420Z 07006KT CAVOK M01/M04 Q1038 NOSIG ETSN 230420Z 04005KT 9999 FEW330 M03/M05 Q1039 BLU+ ETHN 230420Z AUTO 11010KT 9999 // ////// M01/M02 Q1038 /// EDDN 230420Z 10006KT CAVOK M04/M07 Q1040 EDDS 230420Z 08005KT 9999 BKN015 01/M01 Q1037

METAR Messwerte

Klicken Sie auf einen Ort, um die 36h-Historie abzurufen

Ort
m ü. NN
Zeit Temperatur Taupunkt Rel.
Luftfeuchte
Luftdruck:
Altimeter
NN
Station
Wind in Beaufort
(Knoten)
Sichtweite
(Meter)
Wolken
(Meter über Grund)
Wettererscheinung
Ansbach
467
Sa 23.02. 04:56-3-586 %1039
1043
983
O 2 (6)>= 10000  
Bad Windsheim / Illesheim
325
Sa 23.02. 04:56-2-2100 %1040
1043
1001
Windstill>= 10000  
Erfurt-Bindersleben
323
Sa 23.02. 05:20-3-586 %1040
1043
1001
S 2 (4)>= 10000Nicht signifikant 
Frankfurt
113
Sa 23.02. 05:202-180 %1039
1040
1025
NO 3 (8)>= 10000Leicht bewölkt (640) 
Grafenwöhr
415
Sa 23.02. 04:56-3-680 %1040
1044
990
NO 2 (3)>= 10000Bedeckt (6100) 
Hohenfels
442
Sa 23.02. 04:56-4-4100 %1040
1044
987
Windstill>= 10000Stark bewölkt (6100) 
Ingolstadt
370
Sa 23.02. 05:20-2-580 %1039
1042
994
ONO 2 (4)8000  
Leipzig-Schkeuditz
149
Sa 23.02. 05:20-4-686 %1042
1043
1024
O 2 (6)>= 10000Nicht signifikant 
München
447
Sa 23.02. 05:20-1-480 %1038
1042
984
ONO 2 (6)>= 10000Nicht signifikant 
Neuburg/Donau
387
Sa 23.02. 05:20-3-586 %1039
1042
992
NO 2 (5)>= 10000Leicht bewölkt (10000) 
Niederstetten
473
Sa 23.02. 05:20-1-293 %1038
1042
981
OSO 3 (10)>= 10000  
Nürnberg
312
Sa 23.02. 05:20-4-780 %1040
1043
1002
O 2 (6)>= 10000Nicht signifikant 
Stuttgart
419
Sa 23.02. 05:201-186 %1037
1040
987
O 2 (5)>= 10000Stark bewölkt (460) 

Altimeter: Einstellung am Altimeter (Höhenmesser), die Höhe 0 muss auf diesen Luftdruckwert zeigen, damit das Gerät die Stationshöhe richtig anzeigt.

NN: Luftdruck reduziert auf "Normal Null", auf Meereshöhe, dieser von der Temperatur abhängige Wert wird bisweilen unkorrekt einfach als "Luftdruck" bezeichnet. Eigentlich nur eine fiktive Größe, die es erlaubt, Stationen auf unterschiedlichen Höhen miteinander zu vergleichen.

Station: Realer Luftdruck an der Station.